Ana Sayfa
METAR-TAF:

METAR-TAF

Havaalanları :

East London, Güney Afrika

Enlem: 33-02S, Boylam: 027-50E, yükseklik: 125 m

Güncel hava durumu gözlemi

Rapor saat 18:00 UTC de 6 saat ve 53 dakika önce yapıldı.
Rüzgar doğu/kuzeydoğudan 4 kt
Sıcaklık 17°C
Nem 82%
Basınç 1025 hPa
Görüş mesafesi 10 km veya daha fazla
1500 m altında bulut yok ve kümülonimbus yok

METAR: FAEL 151800Z 06004KT CAVOK 17/14 Q1025

Saat: 02:53 (00:53 UTC)

Tahmin

Rapor saat 09:00 UTC de 15 saat ve 53 dakika önce yapıldı.
Ayın 15'si saat 10 UTC'den ayın 15'si saat 19 UTC'ye kadar geçerli Tahmin
Rüzgar güney/güneydoğudan 11 kt
Görüş mesafesi 10 km veya daha fazla
1500 m altında bulut yok ve kümülonimbus yok
Dönüşüyor
ayın 15'si saat 16 UTC'den ayın 15'si saat 18 UTC'ye kadar
Rüzgar kuzeydoğudan 9 kt

TAF: FAEL 150900Z 1510/1519 16011KT CAVOK TX23/1510Z TN19/1519Z BECMG 1516/1518 04009KT

4.000'den fazla havaalanı için hava durumu gözlemleri ve tahminleri (METAR ve TAF raporları).

Kullanılabilir istasyonlar harita üzerinde sarı ve kırmızı noktalarla gösterilir.

İstasyonun adını görmek için fareyi noktanın üzerinde gezdirin.

Sonrasında hava gözlem ve tahminlerini görmek için tıklayın.

Haritayı değiştirmek için: yaklaştırmak için siyah artı işaretli yeşil düğmeye ve uzaklaştırmak için de eksi işaretli düğmeye hızla tıklayın; bitişik haritalar için yeşil okları kullanın.


METAR-TAF: